HOURLY OBS INDEX

050

Central Western Plains - south

CONDOBOLIN AIRPORT AWS

Site: 050137
Alt: 192.6m
6km E of CONDOBOLIN


  Time     Wind        Temp  DP   Baro     Rain since   Rain past  Vis(m), Cloud(base in m), Weather
  local        km/h                         9am  last   hr   10m    
Sun 12:00  WNW 17/ 30  19.5  5.6  1023.5    0.0   0.0   0.0   0.0   ----- 
Sun 12:30  WNW 19/ 30  20.5  5.7  1023.0    0.0   0.0   0.0   0.0   ----- 
Sun 13:00    W 15/ 28  20.1  4.6  1022.5    0.0   0.0   0.0   0.0   ----- 
Sun 13:30    W 11/ 22  20.7  4.7  1022.0    0.0   0.0   0.0   0.0   ----- 
Sun 14:00  WNW 17/ 28  21.2  4.7  1021.5    0.0   0.0   0.0   0.0   ----- 
Sun 14:30  WNW 15/ 24  21.1  4.2  1021.0    0.0   0.0   0.0   0.0   ----- 
Sun 15:00    W 20/ 30  20.8  2.6  1020.6    0.0   0.0   0.0   0.0   ----- 
Sun 15:30    W 13/ 24  21.3  3.0  1020.3    0.0   0.0   0.0   0.0   ----- 
Sun 16:00    W 15/ 20  21.3  2.6  1020.0    0.0   0.0   0.0   0.0   ----- 
Sun 16:30  WNW 15/ 24  20.9  2.2  1019.9    0.0   0.0   0.0   0.0   ----- 
Sun 17:00    W 15/ 20  20.4  1.3  1019.9    0.0   0.0   0.0   0.0   ----- 

WEST WYALONG AIRPORT AWS

Site: 050017
Alt: 257.0m
97km S of CONDOBOLIN


  Time     Wind        Temp  DP   Baro     Rain since   Rain past  Vis(m), Cloud(base in m), Weather
  local        km/h                         9am  last   hr   10m    
Sun 12:00  WNW 20/ 32  18.5  7.0  1023.1    0.0   0.0   0.0   0.0   ----- 
Sun 12:30  WNW 20/ 30  19.1  6.6  1022.8    0.0   0.0   0.0   0.0   ----- 
Sun 13:00  WNW 24/ 35  19.1  6.2  1022.4    0.0   0.0   0.0   0.0   ----- 
Sun 13:30  WNW 19/ 30  19.4  6.2  1021.8    0.0   0.0   0.0   0.0   ----- 
Sun 14:00  WNW 22/ 33  19.4  5.5  1021.3    0.0   0.0   0.0   0.0   ----- 
Sun 14:30  WNW 17/ 26  20.0  5.6  1020.8    0.0   0.0   0.0   0.0   ----- 
Sun 15:00  WNW 22/ 32  19.5  4.8  1020.4    0.0   0.0   0.0   0.0   ----- 
Sun 15:30  WNW 20/ 32  19.7  4.6  1020.2    0.0   0.0   0.0   0.0   ----- 
Sun 16:00    W 19/ 30  19.7  4.2  1020.0    0.0   0.0   0.0   0.0   ----- 
Sun 16:30  WNW 17/ 24  19.5  3.6  1019.8    0.0   0.0   0.0   0.0   ----- 
Sun 17:00   NW 19/ 26  19.0  3.2  1019.7    0.0   0.0   0.0   0.0   -----